Skip Navigation

Christman Field Latest Observations

Switch to metric unitsOther observation timesWeekly graphs

Date Time
MST
Temp
°F
RH
%
DewPt
°F
Wind
mph
Dir
°
Gust
mph
Dir
°
Press
in Hg
Solar
W/m^2
Prec
in
2024-06-21 22:35 59.1 73.2 50.5 5.9 308 6.9 326 24.950 0.2 0.00
2024-06-21 22:30 59.8 71.3 50.5 5.4 321 6.5 339 24.950 0.2 0.00
2024-06-21 22:25 60.5 67.8 49.8 4.5 324 6.4 352 24.951 0.2 0.00
2024-06-21 22:20 59.8 68.3 49.4 2.9 356 4.8 0 24.952 0.2 0.00
2024-06-21 22:15 59.2 72.0 50.2 3.3 90 7.3 10 24.952 0.2 0.00
2024-06-21 22:10 59.2 72.3 50.3 8.3 8 9.7 343 24.951 0.2 0.00
2024-06-21 22:05 59.9 71.4 50.6 6.7 341 8.6 343 24.956 0.2 0.00
2024-06-21 22:00 60.9 68.6 50.5 8.6 356 10.8 342 24.961 0.2 0.00
2024-06-21 21:55 61.3 67.2 50.3 8.6 352 11.0 352 24.962 0.2 0.00
2024-06-21 21:50 61.2 66.6 50.0 6.9 348 8.6 4 24.961 0.2 0.00
2024-06-21 21:45 60.0 68.3 49.5 6.7 6 8.7 2 24.963 0.2 0.00
2024-06-21 21:40 60.2 71.4 50.9 7.0 0 8.7 354 24.967 0.2 0.00
2024-06-21 21:35 61.4 69.3 51.3 6.9 337 9.6 351 24.973 0.2 0.00
2024-06-21 21:30 62.1 65.8 50.6 10.0 345 12.8 349 24.975 0.2 0.00
2024-06-21 21:25 62.3 66.2 50.9 10.3 3 13.4 353 24.969 0.2 0.00
2024-06-21 21:20 62.4 65.9 50.9 10.5 349 13.9 347 24.968 0.2 0.00
2024-06-21 21:15 62.6 65.7 50.9 14.2 343 17.1 326 24.977 0.2 0.00
2024-06-21 21:10 63.2 67.0 52.0 15.9 346 21.8 333 24.979 0.2 0.00
2024-06-21 21:05 63.9 63.6 51.4 16.4 330 22.2 332 24.983 0.2 0.00
2024-06-21 21:00 66.1 61.8 52.7 15.8 315 21.7 319 24.985 0.2 0.00
2024-06-21 20:55 67.8 50.8 48.9 18.3 313 24.7 321 24.984 0.2 0.00
2024-06-21 20:50 68.3 47.0 47.3 19.6 328 25.7 330 24.980 0.1 0.00
2024-06-21 20:45 68.3 46.0 46.8 19.8 318 26.0 310 24.978 0.1 0.00
2024-06-21 20:40 68.5 45.8 46.7 19.9 323 26.4 303 24.974 0.2 0.00
2024-06-21 20:35 68.5 45.6 46.7 19.8 308 28.1 310 24.965 0.1 0.00
2024-06-21 20:30 68.6 44.5 46.2 22.6 314 29.5 313 24.960 0.2 0.00
2024-06-21 20:25 68.8 44.4 46.3 21.0 302 25.5 319 24.958 0.1 0.00
2024-06-21 20:20 69.3 43.4 46.1 25.8 323 33.3 316 24.957 0.2 0.00
2024-06-21 20:15 69.7 42.5 45.9 28.5 314 37.9 307 24.954 0.2 0.00
2024-06-21 20:10 70.0 42.3 46.1 23.5 316 33.5 326 24.950 0.2 0.00